sensor_id;sensor_type;location;lat;lon;timestamp;P1;durP1;ratioP1;P2;durP2;ratioP2
1446;SDS011;717;51.522;7.266;2023-03-01T00:01:36;6.10;;;4.40;;
1446;SDS011;717;51.522;7.266;2023-03-01T00:04:05;8.17;;;4.53;;
1446;SDS011;717;51.522;7.266;2023-03-01T00:06:33;7.37;;;4.90;;
1446;SDS011;717;51.522;7.266;2023-03-01T00:09:05;6.37;;;4.33;;
1446;SDS011;717;51.522;7.266;2023-03-01T00:11:34;5.00;;;3.87;;
1446;SDS011;717;51.522;7.266;2023-03-01T00:14:05;7.37;;;4.67;;
1446;SDS011;717;51.522;7.266;2023-03-01T00:16:35;5.60;;;4.90;;
1446;SDS011;717;51.522;7.266;2023-03-01T00:19:06;5.77;;;5.00;;
1446;SDS011;717;51.522;7.266;2023-03-01T00:21:37;6.47;;;5.03;;
1446;SDS011;717;51.522;7.266;2023-03-01T00:24:06;7.53;;;4.47;;
1446;SDS011;717;51.522;7.266;2023-03-01T00:26:35;6.23;;;5.00;;
1446;SDS011;717;51.522;7.266;2023-03-01T00:29:06;8.50;;;5.10;;
1446;SDS011;717;51.522;7.266;2023-03-01T00:31:35;6.00;;;4.57;;
1446;SDS011;717;51.522;7.266;2023-03-01T00:34:04;5.43;;;4.37;;
1446;SDS011;717;51.522;7.266;2023-03-01T00:36:34;6.27;;;4.70;;
1446;SDS011;717;51.522;7.266;2023-03-01T00:39:04;7.60;;;5.00;;
1446;SDS011;717;51.522;7.266;2023-03-01T00:41:35;10.17;;;5.00;;
1446;SDS011;717;51.522;7.266;2023-03-01T00:44:07;10.47;;;6.43;;
1446;SDS011;717;51.522;7.266;2023-03-01T00:46:37;11.97;;;7.07;;
1446;SDS011;717;51.522;7.266;2023-03-01T00:49:05;9.23;;;6.50;;
1446;SDS011;717;51.522;7.266;2023-03-01T00:51:34;7.43;;;6.23;;
1446;SDS011;717;51.522;7.266;2023-03-01T00:54:04;8.80;;;5.70;;
1446;SDS011;717;51.522;7.266;2023-03-01T00:56:32;7.03;;;5.60;;
1446;SDS011;717;51.522;7.266;2023-03-01T00:59:01;6.80;;;5.63;;
1446;SDS011;717;51.522;7.266;2023-03-01T01:01:32;8.70;;;5.37;;
1446;SDS011;717;51.522;7.266;2023-03-01T01:04:01;8.77;;;5.23;;
1446;SDS011;717;51.522;7.266;2023-03-01T01:06:32;6.33;;;5.00;;
1446;SDS011;717;51.522;7.266;2023-03-01T01:09:03;7.70;;;5.43;;
1446;SDS011;717;51.522;7.266;2023-03-01T01:11:32;7.00;;;5.33;;
1446;SDS011;717;51.522;7.266;2023-03-01T01:14:02;8.20;;;5.30;;
1446;SDS011;717;51.522;7.266;2023-03-01T01:16:33;7.97;;;5.13;;
1446;SDS011;717;51.522;7.266;2023-03-01T01:19:02;8.50;;;4.83;;
1446;SDS011;717;51.522;7.266;2023-03-01T01:21:31;7.03;;;5.27;;
1446;SDS011;717;51.522;7.266;2023-03-01T01:24:02;9.00;;;5.50;;
1446;SDS011;717;51.522;7.266;2023-03-01T01:26:31;6.73;;;4.93;;
1446;SDS011;717;51.522;7.266;2023-03-01T01:29:01;7.13;;;5.40;;
1446;SDS011;717;51.522;7.266;2023-03-01T01:31:34;5.90;;;4.43;;
1446;SDS011;717;51.522;7.266;2023-03-01T01:34:05;7.17;;;4.77;;
1446;SDS011;717;51.522;7.266;2023-03-01T01:36:35;6.13;;;4.70;;
1446;SDS011;717;51.522;7.266;2023-03-01T01:39:04;5.20;;;4.57;;
1446;SDS011;717;51.522;7.266;2023-03-01T01:41:38;5.83;;;4.90;;
1446;SDS011;717;51.522;7.266;2023-03-01T01:44:10;6.37;;;4.73;;
1446;SDS011;717;51.522;7.266;2023-03-01T01:46:43;6.67;;;4.87;;
1446;SDS011;717;51.522;7.266;2023-03-01T01:49:25;5.67;;;4.43;;
1446;SDS011;717;51.522;7.266;2023-03-01T01:52:00;6.67;;;5.00;;
1446;SDS011;717;51.522;7.266;2023-03-01T01:54:36;5.47;;;4.33;;
1446;SDS011;717;51.522;7.266;2023-03-01T01:57:11;6.80;;;4.50;;
1446;SDS011;717;51.522;7.266;2023-03-01T01:59:45;6.00;;;4.10;;
1446;SDS011;717;51.522;7.266;2023-03-01T02:02:19;6.17;;;4.77;;
1446;SDS011;717;51.522;7.266;2023-03-01T02:04:49;8.00;;;4.60;;
1446;SDS011;717;51.522;7.266;2023-03-01T02:07:27;6.53;;;4.60;;
1446;SDS011;717;51.522;7.266;2023-03-01T02:09:56;7.97;;;4.80;;
1446;SDS011;717;51.522;7.266;2023-03-01T02:12:26;5.00;;;4.50;;
1446;SDS011;717;51.522;7.266;2023-03-01T02:14:55;6.77;;;4.33;;
1446;SDS011;717;51.522;7.266;2023-03-01T02:17:26;7.23;;;4.00;;
1446;SDS011;717;51.522;7.266;2023-03-01T02:19:59;5.83;;;4.23;;
1446;SDS011;717;51.522;7.266;2023-03-01T02:22:36;6.00;;;4.37;;
1446;SDS011;717;51.522;7.266;2023-03-01T02:25:07;4.63;;;3.80;;
1446;SDS011;717;51.522;7.266;2023-03-01T02:27:47;6.03;;;4.33;;
1446;SDS011;717;51.522;7.266;2023-03-01T02:30:22;6.17;;;4.63;;
1446;SDS011;717;51.522;7.266;2023-03-01T02:32:53;7.63;;;4.70;;
1446;SDS011;717;51.522;7.266;2023-03-01T02:35:27;4.73;;;4.23;;
1446;SDS011;717;51.522;7.266;2023-03-01T02:37:59;5.30;;;4.23;;
1446;SDS011;717;51.522;7.266;2023-03-01T02:40:29;7.87;;;4.57;;
1446;SDS011;717;51.522;7.266;2023-03-01T02:43:01;6.37;;;4.63;;
1446;SDS011;717;51.522;7.266;2023-03-01T02:45:34;5.57;;;4.10;;
1446;SDS011;717;51.522;7.266;2023-03-01T02:48:03;5.87;;;4.77;;
1446;SDS011;717;51.522;7.266;2023-03-01T02:53:30;7.70;;;4.57;;
1446;SDS011;717;51.522;7.266;2023-03-01T02:56:07;6.17;;;4.47;;
1446;SDS011;717;51.522;7.266;2023-03-01T02:58:38;5.40;;;4.17;;
1446;SDS011;717;51.522;7.266;2023-03-01T03:01:15;5.80;;;4.23;;
1446;SDS011;717;51.522;7.266;2023-03-01T03:03:44;4.87;;;4.37;;
1446;SDS011;717;51.522;7.266;2023-03-01T03:06:13;5.33;;;4.57;;
1446;SDS011;717;51.522;7.266;2023-03-01T03:08:41;5.83;;;4.80;;
1446;SDS011;717;51.522;7.266;2023-03-01T03:11:10;5.93;;;4.80;;
1446;SDS011;717;51.522;7.266;2023-03-01T03:13:38;8.43;;;4.60;;
1446;SDS011;717;51.522;7.266;2023-03-01T03:16:13;5.43;;;4.53;;
1446;SDS011;717;51.522;7.266;2023-03-01T03:18:44;7.50;;;4.50;;
1446;SDS011;717;51.522;7.266;2023-03-01T03:21:13;6.63;;;4.57;;
1446;SDS011;717;51.522;7.266;2023-03-01T03:23:42;4.73;;;4.17;;
1446;SDS011;717;51.522;7.266;2023-03-01T03:26:11;6.20;;;4.30;;
1446;SDS011;717;51.522;7.266;2023-03-01T03:28:40;7.63;;;5.13;;
1446;SDS011;717;51.522;7.266;2023-03-01T03:31:09;5.53;;;4.93;;
1446;SDS011;717;51.522;7.266;2023-03-01T03:33:40;6.10;;;4.17;;
1446;SDS011;717;51.522;7.266;2023-03-01T03:36:08;5.87;;;4.40;;
1446;SDS011;717;51.522;7.266;2023-03-01T03:38:38;5.63;;;4.57;;
1446;SDS011;717;51.522;7.266;2023-03-01T03:41:07;4.80;;;4.13;;
1446;SDS011;717;51.522;7.266;2023-03-01T03:43:36;5.13;;;4.33;;
1446;SDS011;717;51.522;7.266;2023-03-01T03:46:07;5.63;;;3.80;;
1446;SDS011;717;51.522;7.266;2023-03-01T03:48:40;6.10;;;4.57;;
1446;SDS011;717;51.522;7.266;2023-03-01T03:51:10;6.63;;;4.73;;
1446;SDS011;717;51.522;7.266;2023-03-01T03:53:39;5.93;;;4.73;;
1446;SDS011;717;51.522;7.266;2023-03-01T03:56:09;7.27;;;5.10;;
1446;SDS011;717;51.522;7.266;2023-03-01T03:58:38;6.07;;;4.70;;
1446;SDS011;717;51.522;7.266;2023-03-01T04:01:06;6.77;;;4.53;;
1446;SDS011;717;51.522;7.266;2023-03-01T04:03:35;7.50;;;4.93;;
1446;SDS011;717;51.522;7.266;2023-03-01T04:06:06;5.20;;;4.30;;
1446;SDS011;717;51.522;7.266;2023-03-01T04:08:35;8.33;;;5.67;;
1446;SDS011;717;51.522;7.266;2023-03-01T04:11:04;6.50;;;4.47;;
1446;SDS011;717;51.522;7.266;2023-03-01T04:13:46;7.93;;;4.97;;
1446;SDS011;717;51.522;7.266;2023-03-01T04:16:15;7.83;;;5.00;;
1446;SDS011;717;51.522;7.266;2023-03-01T04:18:44;7.00;;;4.67;;
1446;SDS011;717;51.522;7.266;2023-03-01T04:21:15;5.43;;;4.93;;
1446;SDS011;717;51.522;7.266;2023-03-01T04:23:45;7.17;;;4.63;;
1446;SDS011;717;51.522;7.266;2023-03-01T04:26:17;6.23;;;4.67;;
1446;SDS011;717;51.522;7.266;2023-03-01T04:28:46;6.37;;;4.47;;
1446;SDS011;717;51.522;7.266;2023-03-01T04:31:16;8.07;;;4.47;;
1446;SDS011;717;51.522;7.266;2023-03-01T04:33:46;6.73;;;5.00;;
1446;SDS011;717;51.522;7.266;2023-03-01T04:36:19;5.77;;;4.50;;
1446;SDS011;717;51.522;7.266;2023-03-01T04:38:49;5.83;;;4.67;;
1446;SDS011;717;51.522;7.266;2023-03-01T04:41:18;6.03;;;4.47;;
1446;SDS011;717;51.522;7.266;2023-03-01T04:43:48;5.70;;;4.67;;
1446;SDS011;717;51.522;7.266;2023-03-01T04:46:18;6.53;;;5.00;;
1446;SDS011;717;51.522;7.266;2023-03-01T04:48:48;5.93;;;4.70;;
1446;SDS011;717;51.522;7.266;2023-03-01T04:51:19;6.80;;;5.50;;
1446;SDS011;717;51.522;7.266;2023-03-01T04:53:48;5.87;;;4.60;;
1446;SDS011;717;51.522;7.266;2023-03-01T04:56:17;5.30;;;4.77;;
1446;SDS011;717;51.522;7.266;2023-03-01T04:58:48;5.80;;;5.07;;
1446;SDS011;717;51.522;7.266;2023-03-01T05:01:20;6.27;;;5.03;;
1446;SDS011;717;51.522;7.266;2023-03-01T05:03:49;7.90;;;4.80;;
1446;SDS011;717;51.522;7.266;2023-03-01T05:06:22;6.33;;;4.87;;
1446;SDS011;717;51.522;7.266;2023-03-01T05:08:50;5.70;;;5.07;;
1446;SDS011;717;51.522;7.266;2023-03-01T05:11:19;7.03;;;4.87;;
1446;SDS011;717;51.522;7.266;2023-03-01T05:13:47;11.00;;;5.40;;
1446;SDS011;717;51.522;7.266;2023-03-01T05:16:19;5.83;;;4.93;;
1446;SDS011;717;51.522;7.266;2023-03-01T05:18:48;7.40;;;5.00;;
1446;SDS011;717;51.522;7.266;2023-03-01T05:21:23;7.37;;;5.27;;
1446;SDS011;717;51.522;7.266;2023-03-01T05:23:52;5.60;;;4.90;;
1446;SDS011;717;51.522;7.266;2023-03-01T05:26:21;10.00;;;5.30;;
1446;SDS011;717;51.522;7.266;2023-03-01T05:28:53;6.73;;;4.53;;
1446;SDS011;717;51.522;7.266;2023-03-01T05:31:23;7.27;;;4.70;;
1446;SDS011;717;51.522;7.266;2023-03-01T05:33:52;6.70;;;5.30;;
1446;SDS011;717;51.522;7.266;2023-03-01T05:36:23;7.00;;;5.30;;
1446;SDS011;717;51.522;7.266;2023-03-01T05:38:51;6.70;;;5.23;;
1446;SDS011;717;51.522;7.266;2023-03-01T05:41:20;7.07;;;5.07;;
1446;SDS011;717;51.522;7.266;2023-03-01T05:43:49;7.17;;;4.93;;
1446;SDS011;717;51.522;7.266;2023-03-01T05:46:17;7.83;;;4.97;;
1446;SDS011;717;51.522;7.266;2023-03-01T05:48:48;6.63;;;5.37;;
1446;SDS011;717;51.522;7.266;2023-03-01T05:51:17;7.37;;;4.97;;
1446;SDS011;717;51.522;7.266;2023-03-01T05:53:49;6.13;;;5.43;;
1446;SDS011;717;51.522;7.266;2023-03-01T05:56:18;7.20;;;5.50;;
1446;SDS011;717;51.522;7.266;2023-03-01T05:58:47;6.23;;;5.00;;
1446;SDS011;717;51.522;7.266;2023-03-01T06:01:16;7.67;;;5.73;;
1446;SDS011;717;51.522;7.266;2023-03-01T06:03:44;7.73;;;5.70;;
1446;SDS011;717;51.522;7.266;2023-03-01T06:06:13;6.73;;;5.00;;
1446;SDS011;717;51.522;7.266;2023-03-01T06:08:42;6.70;;;4.97;;
1446;SDS011;717;51.522;7.266;2023-03-01T06:11:13;7.27;;;5.40;;
1446;SDS011;717;51.522;7.266;2023-03-01T06:13:41;6.87;;;5.23;;
1446;SDS011;717;51.522;7.266;2023-03-01T06:16:10;8.37;;;5.33;;
1446;SDS011;717;51.522;7.266;2023-03-01T06:18:40;7.17;;;5.80;;
1446;SDS011;717;51.522;7.266;2023-03-01T06:21:08;7.37;;;5.57;;
1446;SDS011;717;51.522;7.266;2023-03-01T06:23:37;6.43;;;4.90;;
1446;SDS011;717;51.522;7.266;2023-03-01T06:26:06;6.13;;;4.70;;
1446;SDS011;717;51.522;7.266;2023-03-01T06:28:37;9.53;;;5.63;;
1446;SDS011;717;51.522;7.266;2023-03-01T06:31:06;7.30;;;5.67;;
1446;SDS011;717;51.522;7.266;2023-03-01T06:33:35;8.13;;;5.87;;
1446;SDS011;717;51.522;7.266;2023-03-01T06:36:04;7.27;;;5.73;;
1446;SDS011;717;51.522;7.266;2023-03-01T06:38:33;8.57;;;5.67;;
1446;SDS011;717;51.522;7.266;2023-03-01T06:41:01;7.20;;;5.50;;
1446;SDS011;717;51.522;7.266;2023-03-01T06:43:30;8.50;;;6.33;;
1446;SDS011;717;51.522;7.266;2023-03-01T06:46:02;7.23;;;5.57;;
1446;SDS011;717;51.522;7.266;2023-03-01T06:48:32;8.27;;;6.10;;
1446;SDS011;717;51.522;7.266;2023-03-01T06:51:01;6.80;;;5.27;;
1446;SDS011;717;51.522;7.266;2023-03-01T06:53:29;6.60;;;5.77;;
1446;SDS011;717;51.522;7.266;2023-03-01T06:55:58;8.67;;;5.53;;
1446;SDS011;717;51.522;7.266;2023-03-01T06:58:27;8.90;;;5.77;;
1446;SDS011;717;51.522;7.266;2023-03-01T07:00:56;7.23;;;5.37;;
1446;SDS011;717;51.522;7.266;2023-03-01T07:03:27;7.37;;;4.97;;
1446;SDS011;717;51.522;7.266;2023-03-01T07:05:55;7.17;;;5.10;;
1446;SDS011;717;51.522;7.266;2023-03-01T07:08:24;6.90;;;5.60;;
1446;SDS011;717;51.522;7.266;2023-03-01T07:10:54;6.93;;;5.20;;
1446;SDS011;717;51.522;7.266;2023-03-01T07:13:23;9.53;;;5.47;;
1446;SDS011;717;51.522;7.266;2023-03-01T07:15:52;9.17;;;5.87;;
1446;SDS011;717;51.522;7.266;2023-03-01T07:18:20;5.70;;;5.10;;
1446;SDS011;717;51.522;7.266;2023-03-01T07:20:51;7.70;;;6.00;;
1446;SDS011;717;51.522;7.266;2023-03-01T07:23:20;8.30;;;5.63;;
1446;SDS011;717;51.522;7.266;2023-03-01T07:25:52;10.87;;;6.20;;
1446;SDS011;717;51.522;7.266;2023-03-01T07:28:22;8.27;;;5.70;;
1446;SDS011;717;51.522;7.266;2023-03-01T07:30:51;8.40;;;6.07;;
1446;SDS011;717;51.522;7.266;2023-03-01T07:33:20;9.07;;;6.50;;
1446;SDS011;717;51.522;7.266;2023-03-01T07:35:48;10.27;;;6.80;;
1446;SDS011;717;51.522;7.266;2023-03-01T07:38:26;10.83;;;6.57;;
1446;SDS011;717;51.522;7.266;2023-03-01T07:40:57;11.43;;;7.27;;
1446;SDS011;717;51.522;7.266;2023-03-01T07:43:27;10.33;;;6.87;;
1446;SDS011;717;51.522;7.266;2023-03-01T07:45:57;8.87;;;6.60;;
1446;SDS011;717;51.522;7.266;2023-03-01T07:48:26;10.10;;;6.20;;
1446;SDS011;717;51.522;7.266;2023-03-01T07:51:00;9.63;;;6.33;;
1446;SDS011;717;51.522;7.266;2023-03-01T07:53:29;9.17;;;5.67;;
1446;SDS011;717;51.522;7.266;2023-03-01T07:56:02;6.50;;;5.77;;
1446;SDS011;717;51.522;7.266;2023-03-01T07:58:33;9.17;;;6.00;;
1446;SDS011;717;51.522;7.266;2023-03-01T08:01:02;5.90;;;5.30;;
1446;SDS011;717;51.522;7.266;2023-03-01T08:03:31;8.67;;;5.93;;
1446;SDS011;717;51.522;7.266;2023-03-01T08:06:03;8.03;;;5.67;;
1446;SDS011;717;51.522;7.266;2023-03-01T08:08:34;8.33;;;5.77;;
1446;SDS011;717;51.522;7.266;2023-03-01T08:11:03;7.60;;;5.47;;
1446;SDS011;717;51.522;7.266;2023-03-01T08:13:34;6.80;;;5.23;;
1446;SDS011;717;51.522;7.266;2023-03-01T08:16:03;6.50;;;4.80;;
1446;SDS011;717;51.522;7.266;2023-03-01T08:18:32;6.57;;;5.30;;
1446;SDS011;717;51.522;7.266;2023-03-01T08:21:05;7.30;;;4.90;;
1446;SDS011;717;51.522;7.266;2023-03-01T08:23:35;7.07;;;5.37;;
1446;SDS011;717;51.522;7.266;2023-03-01T08:26:05;6.60;;;4.80;;
1446;SDS011;717;51.522;7.266;2023-03-01T08:28:35;8.50;;;5.40;;
1446;SDS011;717;51.522;7.266;2023-03-01T08:31:12;7.47;;;5.37;;
1446;SDS011;717;51.522;7.266;2023-03-01T08:33:42;5.53;;;4.67;;
1446;SDS011;717;51.522;7.266;2023-03-01T08:36:18;7.10;;;5.27;;
1446;SDS011;717;51.522;7.266;2023-03-01T08:38:46;6.93;;;5.10;;
1446;SDS011;717;51.522;7.266;2023-03-01T08:41:15;8.60;;;5.70;;
1446;SDS011;717;51.522;7.266;2023-03-01T08:43:43;5.70;;;5.00;;
1446;SDS011;717;51.522;7.266;2023-03-01T08:46:12;5.83;;;4.37;;
1446;SDS011;717;51.522;7.266;2023-03-01T08:48:41;6.23;;;4.97;;
1446;SDS011;717;51.522;7.266;2023-03-01T08:51:10;6.50;;;4.50;;
1446;SDS011;717;51.522;7.266;2023-03-01T08:53:43;5.37;;;4.53;;
1446;SDS011;717;51.522;7.266;2023-03-01T08:56:12;5.93;;;4.37;;
1446;SDS011;717;51.522;7.266;2023-03-01T08:58:43;8.17;;;4.63;;
1446;SDS011;717;51.522;7.266;2023-03-01T09:01:14;7.40;;;4.80;;
1446;SDS011;717;51.522;7.266;2023-03-01T09:03:44;6.53;;;4.80;;
1446;SDS011;717;51.522;7.266;2023-03-01T09:06:13;6.47;;;4.53;;
1446;SDS011;717;51.522;7.266;2023-03-01T09:08:45;7.23;;;5.13;;
1446;SDS011;717;51.522;7.266;2023-03-01T09:11:16;5.83;;;4.70;;
1446;SDS011;717;51.522;7.266;2023-03-01T09:13:46;7.03;;;4.90;;
1446;SDS011;717;51.522;7.266;2023-03-01T09:16:16;7.97;;;5.23;;
1446;SDS011;717;51.522;7.266;2023-03-01T09:18:48;4.87;;;4.03;;
1446;SDS011;717;51.522;7.266;2023-03-01T09:21:18;6.60;;;4.53;;
1446;SDS011;717;51.522;7.266;2023-03-01T09:23:50;6.03;;;4.57;;
1446;SDS011;717;51.522;7.266;2023-03-01T09:26:20;7.03;;;5.00;;
1446;SDS011;717;51.522;7.266;2023-03-01T09:28:50;6.63;;;4.67;;
1446;SDS011;717;51.522;7.266;2023-03-01T09:31:20;8.33;;;4.10;;
1446;SDS011;717;51.522;7.266;2023-03-01T09:33:50;7.07;;;4.27;;
1446;SDS011;717;51.522;7.266;2023-03-01T09:36:21;6.13;;;3.93;;
1446;SDS011;717;51.522;7.266;2023-03-01T09:38:53;4.47;;;3.73;;
1446;SDS011;717;51.522;7.266;2023-03-01T09:41:26;6.27;;;3.90;;
1446;SDS011;717;51.522;7.266;2023-03-01T09:44:16;6.00;;;4.23;;
1446;SDS011;717;51.522;7.266;2023-03-01T09:46:52;6.13;;;3.77;;
1446;SDS011;717;51.522;7.266;2023-03-01T09:49:23;6.10;;;4.00;;
1446;SDS011;717;51.522;7.266;2023-03-01T09:51:54;4.63;;;3.87;;
1446;SDS011;717;51.522;7.266;2023-03-01T09:54:29;6.80;;;4.30;;
1446;SDS011;717;51.522;7.266;2023-03-01T09:57:11;5.47;;;4.60;;
1446;SDS011;717;51.522;7.266;2023-03-01T09:59:52;4.50;;;3.87;;
1446;SDS011;717;51.522;7.266;2023-03-01T10:02:39;5.80;;;4.10;;
1446;SDS011;717;51.522;7.266;2023-03-01T10:05:15;5.93;;;4.00;;
1446;SDS011;717;51.522;7.266;2023-03-01T10:07:58;6.30;;;4.20;;
1446;SDS011;717;51.522;7.266;2023-03-01T10:10:45;6.83;;;3.50;;
1446;SDS011;717;51.522;7.266;2023-03-01T10:13:17;5.67;;;4.10;;
1446;SDS011;717;51.522;7.266;2023-03-01T10:15:52;7.33;;;4.10;;
1446;SDS011;717;51.522;7.266;2023-03-01T10:18:24;5.23;;;3.67;;
1446;SDS011;717;51.522;7.266;2023-03-01T10:20:56;5.10;;;3.73;;
1446;SDS011;717;51.522;7.266;2023-03-01T10:23:27;7.37;;;4.03;;
1446;SDS011;717;51.522;7.266;2023-03-01T10:28:58;7.53;;;3.90;;
1446;SDS011;717;51.522;7.266;2023-03-01T10:31:33;5.57;;;3.93;;
1446;SDS011;717;51.522;7.266;2023-03-01T10:34:08;5.93;;;4.07;;
1446;SDS011;717;51.522;7.266;2023-03-01T10:36:39;5.37;;;3.80;;
1446;SDS011;717;51.522;7.266;2023-03-01T10:39:13;4.40;;;3.63;;
1446;SDS011;717;51.522;7.266;2023-03-01T10:44:35;5.30;;;3.70;;
1446;SDS011;717;51.522;7.266;2023-03-01T10:47:19;5.20;;;3.87;;
1446;SDS011;717;51.522;7.266;2023-03-01T10:49:56;6.07;;;4.30;;
1446;SDS011;717;51.522;7.266;2023-03-01T10:52:28;5.23;;;3.90;;
1446;SDS011;717;51.522;7.266;2023-03-01T10:54:59;6.50;;;3.97;;
1446;SDS011;717;51.522;7.266;2023-03-01T10:57:35;4.53;;;3.90;;
1446;SDS011;717;51.522;7.266;2023-03-01T11:00:19;6.73;;;4.43;;
1446;SDS011;717;51.522;7.266;2023-03-01T11:02:51;5.27;;;4.10;;
1446;SDS011;717;51.522;7.266;2023-03-01T11:05:31;4.23;;;3.83;;
1446;SDS011;717;51.522;7.266;2023-03-01T11:08:00;6.53;;;4.27;;
1446;SDS011;717;51.522;7.266;2023-03-01T11:10:31;6.07;;;4.00;;
1446;SDS011;717;51.522;7.266;2023-03-01T11:13:14;5.73;;;4.30;;
1446;SDS011;717;51.522;7.266;2023-03-01T11:15:46;5.47;;;3.63;;
1446;SDS011;717;51.522;7.266;2023-03-01T11:18:27;5.50;;;3.80;;
1446;SDS011;717;51.522;7.266;2023-03-01T11:20:58;5.13;;;4.40;;
1446;SDS011;717;51.522;7.266;2023-03-01T11:23:29;5.37;;;4.03;;
1446;SDS011;717;51.522;7.266;2023-03-01T11:26:00;6.27;;;3.93;;
1446;SDS011;717;51.522;7.266;2023-03-01T11:28:36;5.90;;;3.93;;
1446;SDS011;717;51.522;7.266;2023-03-01T11:31:08;6.37;;;4.10;;
1446;SDS011;717;51.522;7.266;2023-03-01T11:33:40;5.50;;;4.33;;
1446;SDS011;717;51.522;7.266;2023-03-01T11:36:19;5.13;;;4.07;;
1446;SDS011;717;51.522;7.266;2023-03-01T11:38:56;5.67;;;4.07;;
1446;SDS011;717;51.522;7.266;2023-03-01T11:41:30;4.20;;;3.80;;
1446;SDS011;717;51.522;7.266;2023-03-01T11:44:05;4.70;;;3.93;;
1446;SDS011;717;51.522;7.266;2023-03-01T11:46:44;7.17;;;4.30;;
1446;SDS011;717;51.522;7.266;2023-03-01T11:52:30;6.57;;;4.57;;
1446;SDS011;717;51.522;7.266;2023-03-01T11:55:13;8.97;;;4.40;;
1446;SDS011;717;51.522;7.266;2023-03-01T11:57:58;5.23;;;4.50;;
1446;SDS011;717;51.522;7.266;2023-03-01T12:00:42;5.17;;;4.33;;
1446;SDS011;717;51.522;7.266;2023-03-01T12:03:30;5.30;;;4.57;;
1446;SDS011;717;51.522;7.266;2023-03-01T12:11:53;7.73;;;5.10;;
1446;SDS011;717;51.522;7.266;2023-03-01T12:14:49;5.67;;;4.50;;
1446;SDS011;717;51.522;7.266;2023-03-01T12:17:32;7.23;;;4.57;;
1446;SDS011;717;51.522;7.266;2023-03-01T12:20:17;7.10;;;5.10;;
1446;SDS011;717;51.522;7.266;2023-03-01T12:23:00;7.13;;;4.10;;
1446;SDS011;717;51.522;7.266;2023-03-01T12:25:44;6.93;;;5.10;;
1446;SDS011;717;51.522;7.266;2023-03-01T12:28:24;5.65;;;4.57;;
1446;SDS011;717;51.522;7.266;2023-03-01T12:31:26;7.20;;;4.97;;
1446;SDS011;717;51.522;7.266;2023-03-01T12:34:28;5.73;;;4.30;;
1446;SDS011;717;51.522;7.266;2023-03-01T12:37:20;4.68;;;4.00;;
1446;SDS011;717;51.522;7.266;2023-03-01T12:39:59;5.93;;;4.55;;
1446;SDS011;717;51.522;7.266;2023-03-01T12:42:43;5.75;;;4.72;;
1446;SDS011;717;51.522;7.266;2023-03-01T12:45:32;5.57;;;4.80;;
1446;SDS011;717;51.522;7.266;2023-03-01T12:48:16;6.75;;;4.65;;
1446;SDS011;717;51.522;7.266;2023-03-01T12:50:59;5.22;;;4.68;;
1446;SDS011;717;51.522;7.266;2023-03-01T12:53:32;7.07;;;4.55;;
1446;SDS011;717;51.522;7.266;2023-03-01T12:56:05;7.03;;;5.55;;
1446;SDS011;717;51.522;7.266;2023-03-01T12:58:35;6.05;;;5.20;;
1446;SDS011;717;51.522;7.266;2023-03-01T13:01:14;5.07;;;4.35;;
1446;SDS011;717;51.522;7.266;2023-03-01T13:03:58;5.50;;;4.90;;
1446;SDS011;717;51.522;7.266;2023-03-01T13:06:44;5.95;;;4.95;;
1446;SDS011;717;51.522;7.266;2023-03-01T13:09:23;6.45;;;5.35;;
1446;SDS011;717;51.522;7.266;2023-03-01T13:11:56;6.93;;;5.22;;
1446;SDS011;717;51.522;7.266;2023-03-01T13:14:35;7.03;;;4.68;;
1446;SDS011;717;51.522;7.266;2023-03-01T13:20:01;5.72;;;4.45;;
1446;SDS011;717;51.522;7.266;2023-03-01T13:22:32;5.45;;;4.53;;
1446;SDS011;717;51.522;7.266;2023-03-01T13:25:02;5.18;;;4.60;;
1446;SDS011;717;51.522;7.266;2023-03-01T13:27:44;6.40;;;4.65;;
1446;SDS011;717;51.522;7.266;2023-03-01T13:36:05;5.90;;;4.72;;
1446;SDS011;717;51.522;7.266;2023-03-01T13:38:48;5.82;;;4.85;;
1446;SDS011;717;51.522;7.266;2023-03-01T13:44:20;5.80;;;5.20;;
1446;SDS011;717;51.522;7.266;2023-03-01T13:46:55;6.53;;;5.50;;
1446;SDS011;717;51.522;7.266;2023-03-01T13:49:26;9.57;;;5.22;;
1446;SDS011;717;51.522;7.266;2023-03-01T13:51:57;6.45;;;4.88;;
1446;SDS011;717;51.522;7.266;2023-03-01T13:54:29;6.03;;;4.95;;
1446;SDS011;717;51.522;7.266;2023-03-01T13:56:59;7.40;;;5.53;;
1446;SDS011;717;51.522;7.266;2023-03-01T13:59:29;7.05;;;5.68;;
1446;SDS011;717;51.522;7.266;2023-03-01T14:01:58;7.35;;;6.00;;
1446;SDS011;717;51.522;7.266;2023-03-01T14:04:28;6.95;;;5.32;;
1446;SDS011;717;51.522;7.266;2023-03-01T14:07:10;7.13;;;6.07;;
1446;SDS011;717;51.522;7.266;2023-03-01T14:09:43;5.97;;;5.10;;
1446;SDS011;717;51.522;7.266;2023-03-01T14:12:17;5.75;;;5.15;;
1446;SDS011;717;51.522;7.266;2023-03-01T14:14:56;6.90;;;5.38;;
1446;SDS011;717;51.522;7.266;2023-03-01T14:17:34;7.43;;;5.85;;
1446;SDS011;717;51.522;7.266;2023-03-01T14:20:22;8.15;;;5.88;;
1446;SDS011;717;51.522;7.266;2023-03-01T14:22:52;6.95;;;5.53;;
1446;SDS011;717;51.522;7.266;2023-03-01T14:25:26;7.18;;;5.30;;
1446;SDS011;717;51.522;7.266;2023-03-01T14:27:58;7.47;;;5.65;;
1446;SDS011;717;51.522;7.266;2023-03-01T14:30:31;6.60;;;5.70;;
1446;SDS011;717;51.522;7.266;2023-03-01T14:33:02;7.15;;;5.18;;
1446;SDS011;717;51.522;7.266;2023-03-01T14:35:34;8.73;;;5.82;;
1446;SDS011;717;51.522;7.266;2023-03-01T14:38:04;6.10;;;5.30;;
1446;SDS011;717;51.522;7.266;2023-03-01T14:40:35;6.18;;;5.20;;
1446;SDS011;717;51.522;7.266;2023-03-01T14:43:08;5.68;;;5.18;;
1446;SDS011;717;51.522;7.266;2023-03-01T14:45:39;6.00;;;5.13;;
1446;SDS011;717;51.522;7.266;2023-03-01T14:48:14;6.03;;;5.20;;
1446;SDS011;717;51.522;7.266;2023-03-01T14:50:43;6.78;;;5.45;;
1446;SDS011;717;51.522;7.266;2023-03-01T14:53:15;7.38;;;5.80;;
1446;SDS011;717;51.522;7.266;2023-03-01T14:55:48;6.60;;;5.22;;
1446;SDS011;717;51.522;7.266;2023-03-01T14:58:20;6.38;;;5.70;;
1446;SDS011;717;51.522;7.266;2023-03-01T15:00:51;6.18;;;5.45;;
1446;SDS011;717;51.522;7.266;2023-03-01T15:03:25;8.70;;;5.70;;
1446;SDS011;717;51.522;7.266;2023-03-01T15:05:58;7.60;;;5.30;;
1446;SDS011;717;51.522;7.266;2023-03-01T15:08:28;6.07;;;4.85;;
1446;SDS011;717;51.522;7.266;2023-03-01T15:11:01;6.55;;;4.75;;
1446;SDS011;717;51.522;7.266;2023-03-01T15:13:32;7.85;;;5.57;;
1446;SDS011;717;51.522;7.266;2023-03-01T15:16:09;6.03;;;5.15;;
1446;SDS011;717;51.522;7.266;2023-03-01T15:18:42;6.88;;;5.15;;
1446;SDS011;717;51.522;7.266;2023-03-01T15:21:16;6.43;;;4.70;;
1446;SDS011;717;51.522;7.266;2023-03-01T15:23:48;7.38;;;5.35;;
1446;SDS011;717;51.522;7.266;2023-03-01T15:26:25;6.63;;;5.55;;
1446;SDS011;717;51.522;7.266;2023-03-01T15:28:57;6.20;;;5.13;;
1446;SDS011;717;51.522;7.266;2023-03-01T15:31:27;5.78;;;5.10;;
1446;SDS011;717;51.522;7.266;2023-03-01T15:34:09;6.03;;;5.30;;
1446;SDS011;717;51.522;7.266;2023-03-01T15:36:49;5.93;;;5.32;;
1446;SDS011;717;51.522;7.266;2023-03-01T15:45:09;9.35;;;6.25;;
1446;SDS011;717;51.522;7.266;2023-03-01T15:47:48;6.85;;;4.93;;
1446;SDS011;717;51.522;7.266;2023-03-01T15:50:20;5.50;;;4.80;;
1446;SDS011;717;51.522;7.266;2023-03-01T15:52:50;5.88;;;4.25;;
1446;SDS011;717;51.522;7.266;2023-03-01T15:55:20;5.65;;;4.75;;
1446;SDS011;717;51.522;7.266;2023-03-01T15:57:56;5.40;;;4.72;;
1446;SDS011;717;51.522;7.266;2023-03-01T16:00:27;6.93;;;4.68;;
1446;SDS011;717;51.522;7.266;2023-03-01T16:02:56;5.28;;;4.50;;
1446;SDS011;717;51.522;7.266;2023-03-01T16:05:25;5.00;;;4.50;;
1446;SDS011;717;51.522;7.266;2023-03-01T16:07:56;4.40;;;4.00;;
1446;SDS011;717;51.522;7.266;2023-03-01T16:10:25;4.18;;;3.78;;
1446;SDS011;717;51.522;7.266;2023-03-01T16:12:57;5.97;;;4.78;;
1446;SDS011;717;51.522;7.266;2023-03-01T16:15:27;6.22;;;4.13;;
1446;SDS011;717;51.522;7.266;2023-03-01T16:17:56;4.82;;;3.60;;
1446;SDS011;717;51.522;7.266;2023-03-01T16:20:25;4.82;;;4.00;;
1446;SDS011;717;51.522;7.266;2023-03-01T16:22:55;4.45;;;3.80;;
1446;SDS011;717;51.522;7.266;2023-03-01T16:25:26;4.10;;;3.67;;
1446;SDS011;717;51.522;7.266;2023-03-01T16:27:57;3.95;;;3.05;;
1446;SDS011;717;51.522;7.266;2023-03-01T16:30:30;5.10;;;3.47;;
1446;SDS011;717;51.522;7.266;2023-03-01T16:32:58;5.45;;;3.45;;
1446;SDS011;717;51.522;7.266;2023-03-01T16:35:27;3.95;;;3.25;;
1446;SDS011;717;51.522;7.266;2023-03-01T16:37:56;5.03;;;3.42;;